Time;durP1;ratioP1;P1;durP2;ratioP2;P2;SDS_P1;SDS_P2;PMS_P1;PMS_P2;Temp;Humidity;BMP_temperature;BMP_pressure;BME280_temperature;BME280_humidity;BME280_pressure;Samples;Min_cycle;Max_cycle;Signal;HPM_P1;HPM_P2
2021/09/24 05:29:46;;;;;;;13.15;8.30;;;;;;;;;;6042241;23;20482;-81
2021/09/24 05:32:14;;;;;;;11.85;8.88;;;;;;;;;;4900924;29;20052;-83
2021/09/24 05:38:26;;;;;;;14.50;9.02;;;;;;;;;;5104210;23;20054;-81
2021/09/24 05:44:55;;;;;;;13.98;8.38;;;;;;;;;;4923254;29;20027;-83
2021/09/24 05:47:31;;;;;;;14.25;8.75;;;;;;;;;;4908763;29;20025;-84
2021/09/24 05:50:17;;;;;;;16.27;9.32;;;;;;;;;;4900775;29;20078;-84
2021/09/24 05:53:13;;;;;;;16.35;8.73;;;;;;;;;;4903615;29;20021;-84
2021/09/24 05:55:43;;;;;;;11.63;8.38;;;;;;;;;;4869503;29;20052;-84
2021/09/24 05:58:27;;;;;;;10.90;8.40;;;;;;;;;;4883863;29;20046;-84
2021/09/24 06:01:02;;;;;;;13.20;8.93;;;;;;;;;;4888335;29;20076;-83
2021/09/24 06:04:06;;;;;;;16.73;9.32;;;;;;;;;;4887593;29;20088;-84
2021/09/24 06:09:21;;;;;;;14.63;9.10;;;;;;;;;;5633289;23;20059;-83
2021/09/24 07:56:10;;;;;;;24.50;18.92;;;;;;;;;;4957259;29;20441;-83
2021/09/24 07:58:56;;;;;;;23.92;19.35;;;;;;;;;;4951216;29;20121;-83
2021/09/24 08:01:25;;;;;;;23.92;19.50;;;;;;;;;;4954241;29;20122;-83
2021/09/24 08:03:51;;;;;;;24.77;18.33;;;;;;;;;;4953960;29;20063;-82
2021/09/24 08:06:19;;;;;;;22.88;19.98;;;;;;;;;;4955988;29;20039;-83
2021/09/24 08:08:46;;;;;;;29.23;21.63;;;;;;;;;;4951764;29;20067;-83
2021/09/24 08:11:12;;;;;;;28.70;23.05;;;;;;;;;;4950715;29;20059;-83
2021/09/24 08:13:38;;;;;;;29.17;22.80;;;;;;;;;;4950323;29;20031;-82
2021/09/24 08:16:04;;;;;;;25.67;21.17;;;;;;;;;;4948600;29;20034;-82
2021/09/24 08:18:34;;;;;;;24.90;21.77;;;;;;;;;;4945355;29;20035;-82
2021/09/24 08:21:04;;;;;;;26.25;21.38;;;;;;;;;;4947374;29;20045;-82
2021/09/24 08:23:34;;;;;;;28.70;21.95;;;;;;;;;;4948161;29;20032;-82
2021/09/24 08:26:00;;;;;;;30.30;20.45;;;;;;;;;;4950154;29;20044;-83
2021/09/24 08:28:28;;;;;;;27.50;22.85;;;;;;;;;;4951372;29;20043;-83
2021/09/24 08:30:57;;;;;;;;;;;;;;;;;;4947517;29;20028;-82
2021/09/24 08:33:23;;;;;;;28.70;21.90;;;;;;;;;;4941687;29;20371;-82
2021/09/24 08:35:49;;;;;;;29.30;21.85;;;;;;;;;;4943161;29;20027;-82
2021/09/24 08:38:15;;;;;;;30.17;21.90;;;;;;;;;;4943886;29;20083;-81
2021/09/24 08:40:42;;;;;;;34.63;23.38;;;;;;;;;;4944606;29;20027;-82
2021/09/24 08:43:13;;;;;;;31.13;23.08;;;;;;;;;;4944387;29;20054;-82
2021/09/24 08:45:42;;;;;;;28.83;22.75;;;;;;;;;;4945150;29;20031;-83
2021/09/24 08:48:12;;;;;;;29.23;23.25;;;;;;;;;;4944141;29;20515;-82
2021/09/24 08:50:39;;;;;;;30.52;22.77;;;;;;;;;;4954963;29;20050;-81
2021/09/24 08:53:24;;;;;;;25.13;22.15;;;;;;;;;;4962652;28;20042;-82
2021/09/24 08:55:52;;;;;;;32.20;23.42;;;;;;;;;;4960418;28;20034;-81
2021/09/24 08:58:19;;;;;;;26.80;22.17;;;;;;;;;;4961092;28;20094;-81
2021/09/24 09:00:45;;;;;;;31.75;23.25;;;;;;;;;;4960793;28;20037;-82
2021/09/24 09:03:14;;;;;;;25.95;21.38;;;;;;;;;;4958963;28;20026;-82
2021/09/24 09:05:45;;;;;;;29.02;21.20;;;;;;;;;;4961064;28;20035;-81
2021/09/24 09:08:15;;;;;;;25.33;20.10;;;;;;;;;;4961229;28;20039;-81
2021/09/24 09:10:49;;;;;;;28.60;20.73;;;;;;;;;;4960116;28;20023;-82
2021/09/24 09:13:16;;;;;;;28.27;21.20;;;;;;;;;;4957721;28;20027;-82
2021/09/24 09:15:54;;;;;;;26.85;19.85;;;;;;;;;;4922725;29;20171;-82
2021/09/24 09:18:20;;;;;;;24.48;19.88;;;;;;;;;;4920314;29;20028;-82
2021/09/24 09:20:48;;;;;;;23.17;18.77;;;;;;;;;;4920431;29;20032;-82
2021/09/24 09:23:14;;;;;;;21.77;18.30;;;;;;;;;;4923754;29;20040;-82
2021/09/24 09:25:42;;;;;;;20.85;17.42;;;;;;;;;;4926640;29;20103;-82
2021/09/24 09:28:14;;;;;;;24.13;16.77;;;;;;;;;;4920769;29;20028;-82
2021/09/24 09:30:41;;;;;;;21.92;16.90;;;;;;;;;;4921789;29;20084;-82
2021/09/24 09:33:11;;;;;;;23.40;16.30;;;;;;;;;;4921765;29;20032;-82
2021/09/24 09:35:45;;;;;;;19.08;15.88;;;;;;;;;;4922499;29;20413;-81
2021/09/24 09:38:21;;;;;;;18.80;15.85;;;;;;;;;;4920275;29;20028;-82
2021/09/24 09:40:55;;;;;;;19.60;15.38;;;;;;;;;;4920298;29;20144;-82
2021/09/24 09:43:35;;;;;;;20.55;14.13;;;;;;;;;;4940421;29;20043;-82
2021/09/24 09:46:03;;;;;;;20.08;12.82;;;;;;;;;;4946951;29;20035;-82
2021/09/24 09:48:29;;;;;;;16.80;13.32;;;;;;;;;;4938743;29;20048;-82
2021/09/24 09:50:55;;;;;;;15.15;13.50;;;;;;;;;;4928288;29;20038;-82
2021/09/24 09:53:21;;;;;;;17.85;12.15;;;;;;;;;;4944605;29;20424;-82
2021/09/24 09:55:53;;;;;;;16.23;13.13;;;;;;;;;;4940828;29;20071;-81
2021/09/24 09:58:21;;;;;;;14.85;11.80;;;;;;;;;;4923146;29;20111;-81
2021/09/24 10:01:27;;;;;;;16.17;12.23;;;;;;;;;;4931090;29;20024;-82
2021/09/24 10:03:53;;;;;;;13.82;10.23;;;;;;;;;;4842277;29;20059;-82
2021/09/24 10:06:23;;;;;;;17.63;9.77;;;;;;;;;;4836874;29;20594;-82
2021/09/24 10:08:52;;;;;;;10.65;8.93;;;;;;;;;;4832544;29;20065;-81
2021/09/24 10:11:21;;;;;;;11.25;9.20;;;;;;;;;;4820128;29;20033;-82
2021/09/24 10:14:01;;;;;;;14.27;9.88;;;;;;;;;;4826642;29;20030;-81
2021/09/24 10:16:29;;;;;;;10.88;9.13;;;;;;;;;;4833665;29;20038;-82
2021/09/24 10:18:56;;;;;;;13.82;9.35;;;;;;;;;;4816153;29;20106;-82
2021/09/24 10:21:23;;;;;;;12.77;8.98;;;;;;;;;;4833437;29;20034;-82
2021/09/24 10:24:07;;;;;;;15.20;10.93;;;;;;;;;;4847723;29;20033;-82
2021/09/24 10:26:37;;;;;;;12.52;9.43;;;;;;;;;;4840623;29;20151;-82
2021/09/24 10:29:07;;;;;;;12.45;9.05;;;;;;;;;;4834692;29;20045;-82
2021/09/24 10:31:39;;;;;;;13.80;9.85;;;;;;;;;;4842211;29;20034;-82
2021/09/24 10:34:06;;;;;;;15.20;10.15;;;;;;;;;;4828970;29;20042;-82
2021/09/24 10:37:05;;;;;;;13.35;9.70;;;;;;;;;;4829554;29;20663;-83
2021/09/24 10:39:30;;;;;;;12.52;9.27;;;;;;;;;;4810539;29;20033;-82
2021/09/24 10:42:20;;;;;;;9.93;8.95;;;;;;;;;;4875515;29;20524;-82
2021/09/24 10:45:06;;;;;;;11.98;9.45;;;;;;;;;;4873072;29;20040;-82
2021/09/24 10:48:05;;;;;;;11.50;9.63;;;;;;;;;;4862444;29;20078;-81
2021/09/24 10:50:31;;;;;;;11.75;9.32;;;;;;;;;;4885824;29;20447;-82
2021/09/24 10:53:11;;;;;;;11.80;9.38;;;;;;;;;;4881622;29;20137;-82
2021/09/24 10:55:41;;;;;;;12.97;9.53;;;;;;;;;;4861821;29;20041;-82
2021/09/24 10:58:11;;;;;;;16.20;9.00;;;;;;;;;;4878995;29;20057;-81
2021/09/24 11:00:44;;;;;;;12.27;9.00;;;;;;;;;;4876990;29;20029;-82
2021/09/24 11:03:16;;;;;;;12.63;9.02;;;;;;;;;;4879868;29;20555;-82
2021/09/24 11:06:08;;;;;;;12.18;9.45;;;;;;;;;;4865646;29;20052;-82
2021/09/24 11:08:34;;;;;;;13.10;9.70;;;;;;;;;;4880486;29;20057;-82
2021/09/24 11:11:06;;;;;;;12.70;9.38;;;;;;;;;;4880943;29;20053;-82
2021/09/24 11:13:35;;;;;;;11.75;9.48;;;;;;;;;;4865247;29;20041;-82
2021/09/24 11:16:04;;;;;;;14.20;9.23;;;;;;;;;;4896099;29;20040;-82
2021/09/24 11:18:53;;;;;;;11.53;9.23;;;;;;;;;;4925793;29;20028;-83
2021/09/24 11:22:00;;;;;;;13.77;8.80;;;;;;;;;;4928771;29;20481;-83
2021/09/24 11:24:34;;;;;;;10.93;8.32;;;;;;;;;;4934592;29;20027;-82
2021/09/24 11:27:09;;;;;;;10.15;7.50;;;;;;;;;;4932514;29;20071;-82
2021/09/24 11:29:39;;;;;;;10.98;8.23;;;;;;;;;;4938773;29;20060;-82
2021/09/24 11:32:11;;;;;;;10.50;7.57;;;;;;;;;;4936548;29;20103;-82
2021/09/24 11:34:42;;;;;;;8.15;6.95;;;;;;;;;;4928058;29;20040;-82
2021/09/24 11:37:15;;;;;;;8.85;6.50;;;;;;;;;;4933848;29;20051;-82
2021/09/24 11:39:41;;;;;;;6.82;6.13;;;;;;;;;;4938011;29;20028;-82
2021/09/24 11:42:15;;;;;;;9.20;6.45;;;;;;;;;;4917405;29;20047;-82
2021/09/24 11:44:50;;;;;;;9.85;6.05;;;;;;;;;;4934150;29;20481;-82
2021/09/24 11:47:40;;;;;;;9.60;6.40;;;;;;;;;;4932447;29;20091;-82
2021/09/24 11:50:10;;;;;;;9.02;6.55;;;;;;;;;;4917122;29;20048;-82
2021/09/24 11:52:43;;;;;;;9.02;6.47;;;;;;;;;;4905390;29;20017;-82
2021/09/24 11:55:34;;;;;;;8.40;5.35;;;;;;;;;;5109602;23;20091;-82
2021/09/24 11:58:26;;;;;;;6.65;5.72;;;;;;;;;;4870886;29;20498;-82
2021/09/24 12:00:57;;;;;;;6.20;5.60;;;;;;;;;;4886897;29;20085;-82
2021/09/24 12:03:27;;;;;;;9.77;6.13;;;;;;;;;;4886299;29;20044;-82
2021/09/24 12:06:33;;;;;;;11.27;5.70;;;;;;;;;;5307029;23;20103;-83
2021/09/24 12:09:09;;;;;;;10.77;6.05;;;;;;;;;;4966779;28;20074;-82
2021/09/24 12:11:40;;;;;;;7.82;5.68;;;;;;;;;;4965929;28;20475;-82
2021/09/24 12:14:07;;;;;;;8.23;6.05;;;;;;;;;;4964489;29;20027;-82
2021/09/24 12:16:58;;;;;;;6.85;5.68;;;;;;;;;;4967132;28;20137;-82
2021/09/24 12:19:49;;;;;;;;;;;;;;;;;;4950778;29;20097;-82
2021/09/24 12:22:17;;;;;;;9.50;5.80;;;;;;;;;;4965805;28;19911;-82
2021/09/24 12:24:46;;;;;;;8.93;5.68;;;;;;;;;;4967604;28;20061;-82
2021/09/24 12:27:27;;;;;;;8.98;7.25;;;;;;;;;;4952870;29;20011;-82
2021/09/24 12:29:53;;;;;;;9.05;6.43;;;;;;;;;;4966003;28;20035;-82
2021/09/24 12:32:24;;;;;;;7.25;5.72;;;;;;;;;;4952144;29;20499;-82
2021/09/24 12:35:15;;;;;;;9.38;6.32;;;;;;;;;;4966497;28;20031;-82
2021/09/24 12:37:43;;;;;;;6.20;5.32;;;;;;;;;;4910503;29;20044;-82
2021/09/24 12:40:11;;;;;;;5.88;5.00;;;;;;;;;;4910117;29;20039;-82
2021/09/24 12:42:45;;;;;;;8.23;4.57;;;;;;;;;;4912967;29;20048;-82
2021/09/24 12:45:30;;;;;;;6.25;4.78;;;;;;;;;;4914568;29;20032;-82
2021/09/24 12:48:15;;;;;;;7.63;4.85;;;;;;;;;;4910844;29;20037;-82
2021/09/24 12:50:42;;;;;;;9.65;4.93;;;;;;;;;;4907798;29;20510;-82
2021/09/24 12:53:08;;;;;;;6.15;4.75;;;;;;;;;;4909812;29;20044;-82
2021/09/24 12:55:45;;;;;;;7.32;4.88;;;;;;;;;;4913204;29;20595;-83
2021/09/24 12:58:12;;;;;;;8.90;4.95;;;;;;;;;;4913140;29;20036;-82
2021/09/24 13:00:38;;;;;;;6.93;4.63;;;;;;;;;;4911054;29;20029;-82
2021/09/24 13:03:05;;;;;;;7.75;4.45;;;;;;;;;;4896122;29;20040;-82
2021/09/24 13:05:31;;;;;;;6.30;4.70;;;;;;;;;;4910132;29;20068;-82
2021/09/24 13:07:58;;;;;;;5.38;4.55;;;;;;;;;;4910804;29;20048;-82
2021/09/24 13:10:25;;;;;;;7.38;4.72;;;;;;;;;;4909055;29;20043;-82
2021/09/24 13:12:53;;;;;;;5.97;4.72;;;;;;;;;;4908416;29;20032;-81
2021/09/24 13:15:23;;;;;;;7.20;4.50;;;;;;;;;;4953590;28;20050;-81
2021/09/24 13:17:50;;;;;;;7.53;4.47;;;;;;;;;;4958787;28;20031;-81
2021/09/24 13:20:16;;;;;;;7.25;4.40;;;;;;;;;;4956395;28;20106;-82
2021/09/24 13:22:41;;;;;;;7.40;4.55;;;;;;;;;;4956690;28;20027;-83
2021/09/24 13:25:09;;;;;;;7.43;4.18;;;;;;;;;;4938816;28;20170;-84
2021/09/24 13:27:36;;;;;;;5.40;4.30;;;;;;;;;;4938725;29;20506;-83
2021/09/24 13:30:02;;;;;;;5.43;4.32;;;;;;;;;;4955611;28;20053;-85
2021/09/24 13:32:28;;;;;;;5.15;4.38;;;;;;;;;;4955616;28;20027;-83
2021/09/24 13:34:53;;;;;;;5.97;4.38;;;;;;;;;;4955434;28;20556;-83
2021/09/24 13:37:19;;;;;;;6.18;4.72;;;;;;;;;;4938061;29;20035;-84
2021/09/24 13:39:44;;;;;;;7.35;5.05;;;;;;;;;;4955805;28;20027;-84
2021/09/24 13:42:10;;;;;;;5.20;4.65;;;;;;;;;;4955476;28;20038;-83
2021/09/24 13:44:36;;;;;;;6.85;4.50;;;;;;;;;;4955435;29;20027;-83
2021/09/24 13:47:02;;;;;;;9.77;5.00;;;;;;;;;;4955101;28;20027;-83
2021/09/24 13:49:27;;;;;;;6.30;4.78;;;;;;;;;;4937875;29;20035;-83
2021/09/24 13:51:53;;;;;;;8.43;4.45;;;;;;;;;;4955329;28;20035;-83
2021/09/24 13:54:18;;;;;;;4.82;4.25;;;;;;;;;;4937980;29;20129;-84
2021/09/24 13:56:45;;;;;;;6.65;4.10;;;;;;;;;;4955201;28;20023;-84
2021/09/24 13:59:11;;;;;;;5.75;4.47;;;;;;;;;;4955148;28;20102;-85
2021/09/24 14:01:38;;;;;;;6.93;3.85;;;;;;;;;;4938145;29;20078;-84
2021/09/24 14:04:03;;;;;;;7.70;4.35;;;;;;;;;;4954790;28;20050;-84
2021/09/24 14:06:29;;;;;;;5.70;4.15;;;;;;;;;;4955039;28;20507;-84
2021/09/24 14:08:54;;;;;;;4.20;3.80;;;;;;;;;;4954854;29;20031;-85
2021/09/24 14:11:20;;;;;;;4.35;3.63;;;;;;;;;;4955030;28;20034;-85
2021/09/24 14:13:46;;;;;;;5.97;3.95;;;;;;;;;;4955024;29;20035;-85
2021/09/24 14:16:12;;;;;;;6.50;3.50;;;;;;;;;;4954857;28;20037;-84
2021/09/24 14:18:38;;;;;;;7.05;3.88;;;;;;;;;;4954642;28;20118;-85
2021/09/24 14:21:03;;;;;;;3.70;2.97;;;;;;;;;;4937480;29;20027;-84
2021/09/24 14:23:29;;;;;;;4.68;3.75;;;;;;;;;;4955098;28;20090;-85
2021/09/24 14:25:55;;;;;;;4.32;3.50;;;;;;;;;;4937482;29;20046;-84
2021/09/24 14:28:21;;;;;;;7.15;3.63;;;;;;;;;;4954771;28;20035;-84
2021/09/24 14:30:46;;;;;;;3.65;3.03;;;;;;;;;;4937504;29;20558;-84
2021/09/24 14:33:12;;;;;;;5.10;3.22;;;;;;;;;;4954214;28;20035;-85
2021/09/24 14:35:37;;;;;;;5.78;3.88;;;;;;;;;;4954741;28;20023;-85
2021/09/24 14:38:03;;;;;;;3.70;3.40;;;;;;;;;;4954531;29;20396;-85
2021/09/24 14:40:29;;;;;;;3.55;3.17;;;;;;;;;;4954577;29;20377;-84
2021/09/24 14:42:55;;;;;;;3.50;3.00;;;;;;;;;;4954386;29;20447;-84
2021/09/24 14:45:21;;;;;;;3.55;2.90;;;;;;;;;;4954201;28;20035;-83
2021/09/24 14:47:47;;;;;;;3.80;2.80;;;;;;;;;;4936513;29;20035;-83
2021/09/24 14:50:13;;;;;;;5.82;2.85;;;;;;;;;;4954206;29;20035;-83
2021/09/24 14:52:38;;;;;;;5.57;2.88;;;;;;;;;;4954439;28;20067;-83
2021/09/24 14:55:06;;;;;;;3.75;2.90;;;;;;;;;;4954124;29;20062;-83
2021/09/24 14:57:32;;;;;;;3.90;2.38;;;;;;;;;;4953444;28;20054;-83
2021/09/24 15:00:00;;;;;;;3.03;2.50;;;;;;;;;;4953879;28;20060;-83
2021/09/24 15:02:26;;;;;;;3.65;2.70;;;;;;;;;;4935977;29;20034;-82
2021/09/24 15:04:52;;;;;;;3.75;2.70;;;;;;;;;;4954192;28;20034;-82
2021/09/24 15:07:18;;;;;;;4.95;3.15;;;;;;;;;;4951104;28;20063;-82
2021/09/24 15:09:44;;;;;;;3.42;2.28;;;;;;;;;;4934884;29;20499;-82
2021/09/24 15:12:10;;;;;;;3.25;2.28;;;;;;;;;;4934962;29;20031;-83
2021/09/24 15:14:36;;;;;;;5.53;2.45;;;;;;;;;;4934641;29;20455;-83
2021/09/24 15:17:02;;;;;;;4.25;2.45;;;;;;;;;;4917780;29;20039;-83
2021/09/24 15:19:28;;;;;;;3.75;2.75;;;;;;;;;;4917920;29;20433;-83
2021/09/24 15:21:53;;;;;;;5.70;2.67;;;;;;;;;;4934971;29;20039;-83
2021/09/24 15:24:19;;;;;;;5.05;2.83;;;;;;;;;;4917634;29;20036;-84
2021/09/24 15:26:45;;;;;;;4.90;2.75;;;;;;;;;;4935044;29;20063;-85
2021/09/24 15:29:12;;;;;;;3.60;2.47;;;;;;;;;;4917238;29;20035;-84
2021/09/24 15:31:38;;;;;;;2.78;2.50;;;;;;;;;;4932408;29;20027;-85
2021/09/24 15:34:04;;;;;;;4.55;2.70;;;;;;;;;;4933335;29;20540;-83
2021/09/24 15:36:30;;;;;;;3.28;2.67;;;;;;;;;;4916647;29;20547;-83
2021/09/24 15:39:00;;;;;;;4.22;2.80;;;;;;;;;;4914551;29;20071;-84
2021/09/24 15:41:26;;;;;;;4.55;2.70;;;;;;;;;;4913552;29;20035;-84
2021/09/24 15:43:52;;;;;;;4.25;2.50;;;;;;;;;;4933582;29;20031;-83
2021/09/24 15:46:18;;;;;;;9.07;3.78;;;;;;;;;;4933493;29;20400;-83
2021/09/24 15:48:46;;;;;;;95.68;7.70;;;;;;;;;;4941939;28;20024;-84
2021/09/24 15:51:12;;;;;;;3.80;2.00;;;;;;;;;;4936239;29;20035;-83
2021/09/24 15:53:39;;;;;;;2.60;2.40;;;;;;;;;;4934681;29;20556;-83
2021/09/24 15:56:04;;;;;;;5.90;2.47;;;;;;;;;;4934921;28;20063;-83
2021/09/24 15:58:30;;;;;;;3.67;2.90;;;;;;;;;;4934194;29;20091;-83
2021/09/24 16:00:56;;;;;;;2.97;2.40;;;;;;;;;;4920866;29;20024;-83
2021/09/24 16:03:21;;;;;;;2.97;2.42;;;;;;;;;;4929515;29;20551;-83
2021/09/24 16:05:47;;;;;;;3.38;2.50;;;;;;;;;;4924050;28;20047;-83
2021/09/24 16:08:13;;;;;;;5.55;2.70;;;;;;;;;;4939799;29;20035;-82
2021/09/24 16:10:38;;;;;;;3.35;2.60;;;;;;;;;;4956918;28;20035;-83
2021/09/24 16:13:04;;;;;;;3.83;2.47;;;;;;;;;;4955945;28;20042;-83
2021/09/24 16:15:30;;;;;;;3.83;2.15;;;;;;;;;;4957014;29;20058;-83
2021/09/24 16:17:56;;;;;;;3.63;2.53;;;;;;;;;;4957057;28;20093;-83
2021/09/24 16:20:22;;;;;;;4.30;2.83;;;;;;;;;;4956997;28;20035;-83
2021/09/24 16:22:47;;;;;;;4.90;2.80;;;;;;;;;;4939860;29;20118;-83
2021/09/24 16:25:13;;;;;;;4.38;2.60;;;;;;;;;;4957079;28;20062;-83
2021/09/24 16:27:39;;;;;;;3.38;2.70;;;;;;;;;;4956559;28;20038;-83
2021/09/24 16:30:06;;;;;;;5.68;3.00;;;;;;;;;;4956950;29;20038;-83
2021/09/24 16:32:33;;;;;;;7.15;2.80;;;;;;;;;;4954196;28;20039;-83
2021/09/24 16:34:59;;;;;;;9.18;3.13;;;;;;;;;;4956315;29;20106;-83
2021/09/24 16:37:24;;;;;;;3.83;2.97;;;;;;;;;;4955876;28;20058;-83
2021/09/24 16:39:50;;;;;;;3.75;2.70;;;;;;;;;;4953874;29;20518;-83
2021/09/24 16:42:15;;;;;;;5.55;2.90;;;;;;;;;;4953688;29;20042;-83
2021/09/24 16:44:41;;;;;;;5.80;3.05;;;;;;;;;;4955609;28;20050;-83
2021/09/24 16:47:07;;;;;;;3.50;2.83;;;;;;;;;;4956568;28;20031;-82
2021/09/24 16:49:32;;;;;;;4.85;3.20;;;;;;;;;;4953959;29;20740;-83
2021/09/24 16:51:58;;;;;;;4.88;3.10;;;;;;;;;;4957546;28;20039;-82
2021/09/24 16:54:23;;;;;;;5.60;3.28;;;;;;;;;;4937651;29;20228;-83
2021/09/24 16:56:48;;;;;;;6.93;3.80;;;;;;;;;;4936207;29;20031;-81
2021/09/24 16:59:14;;;;;;;4.50;3.50;;;;;;;;;;4956011;29;20027;-81
2021/09/24 17:01:40;;;;;;;7.20;3.83;;;;;;;;;;4955214;29;20051;-81
2021/09/24 17:04:06;;;;;;;12.48;4.32;;;;;;;;;;4955919;29;20074;-81
2021/09/24 17:06:32;;;;;;;10.18;4.45;;;;;;;;;;4953599;28;20836;-82
2021/09/24 17:08:57;;;;;;;7.38;3.58;;;;;;;;;;4957406;28;20114;-81
2021/09/24 17:11:23;;;;;;;7.85;3.67;;;;;;;;;;4959279;28;20448;-82
2021/09/24 17:13:48;;;;;;;7.53;4.10;;;;;;;;;;4954129;29;20037;-82
2021/09/24 17:16:14;;;;;;;4.13;3.65;;;;;;;;;;4954745;29;20031;-81
2021/09/24 17:18:39;;;;;;;8.18;4.63;;;;;;;;;;4952679;28;20042;-82
2021/09/24 17:21:09;;;;;;;11.73;3.70;;;;;;;;;;4950507;29;20407;-82
2021/09/24 17:23:36;;;;;;;8.07;3.90;;;;;;;;;;4953634;29;20396;-83
2021/09/24 17:26:02;;;;;;;9.30;4.00;;;;;;;;;;4954467;29;20459;-84
2021/09/24 17:28:27;;;;;;;6.28;4.05;;;;;;;;;;4937238;28;20039;-84
2021/09/24 17:30:53;;;;;;;5.55;3.83;;;;;;;;;;4952413;28;20034;-81
2021/09/24 17:33:18;;;;;;;10.45;3.60;;;;;;;;;;4933943;29;20053;-81
2021/09/24 17:35:44;;;;;;;6.13;4.43;;;;;;;;;;4951110;28;20042;-81
2021/09/24 17:38:10;;;;;;;10.98;5.85;;;;;;;;;;4952354;29;20514;-82
2021/09/24 17:40:36;;;;;;;9.27;5.80;;;;;;;;;;4935857;29;20054;-81
2021/09/24 17:43:03;;;;;;;7.63;6.28;;;;;;;;;;4932182;29;20403;-82
2021/09/24 17:45:28;;;;;;;9.57;7.05;;;;;;;;;;4935470;29;20035;-81
2021/09/24 17:47:54;;;;;;;10.07;6.57;;;;;;;;;;4936049;29;20038;-80
2021/09/24 17:50:22;;;;;;;10.30;6.65;;;;;;;;;;4936492;29;20031;-80
2021/09/24 17:52:48;;;;;;;9.10;6.20;;;;;;;;;;4964971;29;20104;-80
2021/09/24 17:55:17;;;;;;;12.93;6.95;;;;;;;;;;4953311;29;20046;-80
2021/09/24 17:57:44;;;;;;;7.05;5.50;;;;;;;;;;4974799;28;20050;-80
2021/09/24 18:00:12;;;;;;;7.93;5.28;;;;;;;;;;4971924;29;20031;-80
2021/09/24 18:02:39;;;;;;;8.13;6.00;;;;;;;;;;4971490;29;20035;-80
2021/09/24 18:05:07;;;;;;;9.05;5.70;;;;;;;;;;4955802;29;20034;-80
2021/09/24 18:07:33;;;;;;;11.60;6.40;;;;;;;;;;4972766;28;20047;-81
2021/09/24 18:10:01;;;;;;;9.85;6.50;;;;;;;;;;4953085;29;20526;-81
2021/09/24 18:12:26;;;;;;;8.77;6.00;;;;;;;;;;4968536;28;20031;-81
2021/09/24 18:14:54;;;;;;;8.05;5.72;;;;;;;;;;4966125;29;20047;-80
2021/09/24 18:17:34;;;;;;;8.88;6.07;;;;;;;;;;4968740;29;20042;-80
2021/09/24 18:19:59;;;;;;;6.95;6.00;;;;;;;;;;4968694;28;20011;-81
2021/09/24 18:22:31;;;;;;;7.68;5.40;;;;;;;;;;4958833;28;20043;-81
2021/09/24 18:25:31;;;;;;;5.88;5.28;;;;;;;;;;4975912;29;20069;-82
2021/09/24 18:28:14;;;;;;;15.77;5.97;;;;;;;;;;4939705;29;20020;-82
2021/09/24 18:30:44;;;;;;;8.73;5.63;;;;;;;;;;4972482;28;20046;-82
2021/09/24 18:33:15;;;;;;;;;;;;;;;;;;4953432;29;20019;-82
2021/09/24 18:36:08;;;;;;;;;;;;;;;;;;4954970;29;19945;-82
2021/09/24 18:39:13;;;;;;;9.57;5.78;;;;;;;;;;4969307;29;19929;-81
2021/09/24 18:41:42;;;;;;;9.38;6.00;;;;;;;;;;4947565;29;20107;-82
2021/09/24 18:44:12;;;;;;;9.07;6.22;;;;;;;;;;4961063;29;20059;-81
2021/09/24 18:46:43;;;;;;;10.03;6.43;;;;;;;;;;4970486;28;20517;-82
2021/09/24 18:49:20;;;;;;;8.10;5.60;;;;;;;;;;4975615;29;20306;-83
2021/09/24 18:51:49;;;;;;;6.38;5.40;;;;;;;;;;4935797;29;20044;-81
2021/09/24 18:54:39;;;;;;;;;;;;;;;;;;4968453;28;20074;-83
2021/09/24 18:57:08;;;;;;;10.98;5.80;;;;;;;;;;4973520;29;19910;-82
2021/09/24 18:59:40;;;;;;;8.02;5.82;;;;;;;;;;4977916;29;20019;-82
2021/09/24 19:02:12;;;;;;;8.90;5.40;;;;;;;;;;4956052;29;20031;-82
2021/09/24 19:04:41;;;;;;;6.68;5.25;;;;;;;;;;4960109;29;20075;-82
2021/09/24 19:10:54;;;;;;;11.73;6.03;;;;;;;;;;4975224;28;20128;-83
2021/09/24 19:14:10;;;;;;;9.25;5.85;;;;;;;;;;4961539;29;20051;-82
2021/09/24 19:17:29;;;;;;;11.60;5.90;;;;;;;;;;4932004;29;20051;-83
2021/09/24 19:20:06;;;;;;;7.47;5.43;;;;;;;;;;4973292;29;20043;-83
2021/09/24 19:22:52;;;;;;;9.93;5.28;;;;;;;;;;4976382;28;20035;-82
2021/09/24 19:25:32;;;;;;;10.63;5.40;;;;;;;;;;4975617;28;20034;-82
2021/09/24 19:28:13;;;;;;;12.13;5.70;;;;;;;;;;4924031;29;20043;-82
2021/09/24 19:34:21;;;;;;;8.65;5.80;;;;;;;;;;4971760;28;20046;-83
2021/09/24 19:36:49;;;;;;;7.65;5.57;;;;;;;;;;4980733;28;20046;-82
2021/09/24 19:43:20;;;;;;;7.18;4.88;;;;;;;;;;4981393;28;20047;-84
2021/09/24 19:46:26;;;;;;;10.32;5.32;;;;;;;;;;4978253;28;20038;-84
2021/09/24 19:49:22;;;;;;;7.93;5.13;;;;;;;;;;4968758;29;20047;-83
2021/09/24 19:52:34;;;;;;;11.48;5.32;;;;;;;;;;4966141;29;20071;-83
2021/09/24 19:55:39;;;;;;;7.38;5.32;;;;;;;;;;4980099;29;20030;-83
2021/09/24 19:59:07;;;;;;;9.35;5.53;;;;;;;;;;4957200;29;20055;-84
2021/09/24 20:02:02;;;;;;;7.72;4.90;;;;;;;;;;4960049;28;20035;-84
2021/09/24 20:04:58;;;;;;;7.43;5.00;;;;;;;;;;4980129;29;20015;-83
2021/09/24 20:08:10;;;;;;;8.85;5.47;;;;;;;;;;4976987;28;20075;-84
2021/09/24 20:11:34;;;;;;;9.93;5.30;;;;;;;;;;4918001;29;20039;-83
2021/09/24 20:14:21;;;;;;;8.93;5.18;;;;;;;;;;4926485;29;20032;-83
2021/09/24 20:20:15;;;;;;;7.55;5.20;;;;;;;;;;4931279;29;20027;-83
2021/09/24 20:23:28;;;;;;;7.65;5.50;;;;;;;;;;4905031;29;20036;-83
2021/09/24 20:33:57;;;;;;;8.52;5.60;;;;;;;;;;4921882;29;20059;-85
2021/09/24 20:36:59;;;;;;;9.15;5.75;;;;;;;;;;4852862;29;20017;-83
2021/09/24 20:39:25;;;;;;;11.35;5.60;;;;;;;;;;4887202;29;20025;-83
2021/09/24 20:42:14;;;;;;;8.02;5.65;;;;;;;;;;4896710;29;20105;-83
2021/09/24 20:44:46;;;;;;;9.65;5.90;;;;;;;;;;4890969;29;20032;-84
